sensor_id;sensor_type;location;lat;lon;timestamp;P1;durP1;ratioP1;P2;durP2;ratioP2
179;SDS011;78;48.788;9.010;2022-07-29T00:02:02;23.87;;;8.87;;
179;SDS011;78;48.788;9.010;2022-07-29T00:04:28;23.43;;;8.30;;
179;SDS011;78;48.788;9.010;2022-07-29T00:06:54;22.17;;;8.50;;
179;SDS011;78;48.788;9.010;2022-07-29T00:09:20;21.97;;;8.30;;
179;SDS011;78;48.788;9.010;2022-07-29T00:11:47;23.17;;;8.90;;
179;SDS011;78;48.788;9.010;2022-07-29T00:14:13;22.80;;;8.60;;
179;SDS011;78;48.788;9.010;2022-07-29T00:16:39;24.63;;;8.23;;
179;SDS011;78;48.788;9.010;2022-07-29T00:19:05;22.53;;;8.80;;
179;SDS011;78;48.788;9.010;2022-07-29T00:21:33;24.83;;;9.13;;
179;SDS011;78;48.788;9.010;2022-07-29T00:23:59;26.53;;;9.00;;
179;SDS011;78;48.788;9.010;2022-07-29T00:26:26;23.07;;;8.77;;
179;SDS011;78;48.788;9.010;2022-07-29T00:28:57;23.07;;;8.40;;
179;SDS011;78;48.788;9.010;2022-07-29T00:31:24;24.10;;;8.80;;
179;SDS011;78;48.788;9.010;2022-07-29T00:33:51;23.10;;;8.63;;
179;SDS011;78;48.788;9.010;2022-07-29T00:36:17;26.63;;;8.33;;
179;SDS011;78;48.788;9.010;2022-07-29T00:38:43;22.90;;;8.67;;
179;SDS011;78;48.788;9.010;2022-07-29T00:41:11;22.33;;;8.80;;
179;SDS011;78;48.788;9.010;2022-07-29T00:43:38;23.13;;;9.20;;
179;SDS011;78;48.788;9.010;2022-07-29T00:46:04;21.80;;;8.60;;
179;SDS011;78;48.788;9.010;2022-07-29T00:48:30;22.03;;;8.40;;
179;SDS011;78;48.788;9.010;2022-07-29T00:50:57;23.47;;;8.97;;
179;SDS011;78;48.788;9.010;2022-07-29T00:53:24;25.20;;;9.07;;
179;SDS011;78;48.788;9.010;2022-07-29T00:55:50;24.83;;;9.03;;
179;SDS011;78;48.788;9.010;2022-07-29T00:58:17;25.60;;;8.63;;
179;SDS011;78;48.788;9.010;2022-07-29T01:00:43;25.80;;;8.47;;
179;SDS011;78;48.788;9.010;2022-07-29T01:03:09;24.40;;;8.97;;
179;SDS011;78;48.788;9.010;2022-07-29T01:05:35;22.37;;;8.30;;
179;SDS011;78;48.788;9.010;2022-07-29T01:08:02;22.23;;;8.40;;
179;SDS011;78;48.788;9.010;2022-07-29T01:10:28;23.67;;;8.87;;
179;SDS011;78;48.788;9.010;2022-07-29T01:12:56;25.23;;;8.03;;
179;SDS011;78;48.788;9.010;2022-07-29T01:15:23;20.70;;;8.00;;
179;SDS011;78;48.788;9.010;2022-07-29T01:20:58;23.17;;;8.50;;
179;SDS011;78;48.788;9.010;2022-07-29T01:23:24;23.40;;;8.50;;
179;SDS011;78;48.788;9.010;2022-07-29T01:26:17;22.43;;;9.03;;
179;SDS011;78;48.788;9.010;2022-07-29T01:37:15;22.73;;;8.20;;
179;SDS011;78;48.788;9.010;2022-07-29T01:39:45;22.73;;;7.97;;
179;SDS011;78;48.788;9.010;2022-07-29T01:42:15;22.53;;;8.23;;
179;SDS011;78;48.788;9.010;2022-07-29T01:44:50;22.60;;;8.83;;
179;SDS011;78;48.788;9.010;2022-07-29T01:47:20;21.27;;;8.40;;
179;SDS011;78;48.788;9.010;2022-07-29T01:49:51;22.87;;;8.50;;
179;SDS011;78;48.788;9.010;2022-07-29T01:52:21;23.17;;;8.60;;
179;SDS011;78;48.788;9.010;2022-07-29T01:54:52;21.20;;;7.90;;
179;SDS011;78;48.788;9.010;2022-07-29T01:57:20;22.57;;;7.80;;
179;SDS011;78;48.788;9.010;2022-07-29T01:59:47;21.13;;;7.27;;
179;SDS011;78;48.788;9.010;2022-07-29T02:02:15;21.60;;;7.80;;
179;SDS011;78;48.788;9.010;2022-07-29T02:04:43;21.53;;;7.63;;
179;SDS011;78;48.788;9.010;2022-07-29T02:07:15;21.87;;;7.00;;
179;SDS011;78;48.788;9.010;2022-07-29T02:09:42;21.47;;;7.50;;
179;SDS011;78;48.788;9.010;2022-07-29T02:12:09;23.90;;;7.53;;
179;SDS011;78;48.788;9.010;2022-07-29T02:14:37;21.30;;;7.37;;
179;SDS011;78;48.788;9.010;2022-07-29T02:17:04;20.67;;;6.90;;
179;SDS011;78;48.788;9.010;2022-07-29T02:19:31;22.47;;;7.23;;
179;SDS011;78;48.788;9.010;2022-07-29T02:21:58;20.10;;;7.00;;
179;SDS011;78;48.788;9.010;2022-07-29T02:24:25;19.70;;;6.80;;
179;SDS011;78;48.788;9.010;2022-07-29T02:26:52;19.60;;;6.80;;
179;SDS011;78;48.788;9.010;2022-07-29T02:29:20;20.03;;;6.80;;
179;SDS011;78;48.788;9.010;2022-07-29T02:31:47;20.90;;;6.83;;
179;SDS011;78;48.788;9.010;2022-07-29T02:34:15;21.93;;;7.20;;
179;SDS011;78;48.788;9.010;2022-07-29T02:36:41;21.90;;;7.13;;
179;SDS011;78;48.788;9.010;2022-07-29T02:39:08;19.13;;;6.97;;
179;SDS011;78;48.788;9.010;2022-07-29T02:41:46;19.80;;;6.80;;
179;SDS011;78;48.788;9.010;2022-07-29T02:44:24;20.43;;;6.80;;
179;SDS011;78;48.788;9.010;2022-07-29T02:46:55;19.30;;;6.40;;
179;SDS011;78;48.788;9.010;2022-07-29T02:52:30;20.63;;;6.73;;
179;SDS011;78;48.788;9.010;2022-07-29T02:55:18;22.97;;;7.70;;
179;SDS011;78;48.788;9.010;2022-07-29T02:58:03;20.87;;;7.60;;
179;SDS011;78;48.788;9.010;2022-07-29T03:00:31;20.63;;;6.83;;
179;SDS011;78;48.788;9.010;2022-07-29T03:03:01;25.90;;;7.63;;
179;SDS011;78;48.788;9.010;2022-07-29T03:05:29;23.73;;;8.70;;
179;SDS011;78;48.788;9.010;2022-07-29T03:08:04;21.50;;;8.03;;
179;SDS011;78;48.788;9.010;2022-07-29T03:10:30;20.80;;;7.50;;
179;SDS011;78;48.788;9.010;2022-07-29T03:12:57;20.43;;;7.50;;
179;SDS011;78;48.788;9.010;2022-07-29T03:15:23;21.30;;;7.63;;
179;SDS011;78;48.788;9.010;2022-07-29T03:17:49;20.67;;;7.40;;
179;SDS011;78;48.788;9.010;2022-07-29T03:20:16;19.90;;;7.30;;
179;SDS011;78;48.788;9.010;2022-07-29T03:22:44;21.07;;;7.67;;
179;SDS011;78;48.788;9.010;2022-07-29T03:25:13;20.63;;;7.23;;
179;SDS011;78;48.788;9.010;2022-07-29T03:27:39;19.70;;;7.00;;
179;SDS011;78;48.788;9.010;2022-07-29T03:30:06;18.77;;;6.87;;
179;SDS011;78;48.788;9.010;2022-07-29T03:32:32;20.50;;;7.23;;
179;SDS011;78;48.788;9.010;2022-07-29T03:34:58;20.13;;;7.00;;
179;SDS011;78;48.788;9.010;2022-07-29T03:37:25;22.23;;;7.67;;
179;SDS011;78;48.788;9.010;2022-07-29T03:39:51;20.77;;;7.03;;
179;SDS011;78;48.788;9.010;2022-07-29T03:42:18;20.50;;;7.40;;
179;SDS011;78;48.788;9.010;2022-07-29T03:44:45;19.13;;;6.90;;
179;SDS011;78;48.788;9.010;2022-07-29T03:47:13;22.23;;;8.20;;
179;SDS011;78;48.788;9.010;2022-07-29T03:49:40;20.70;;;7.10;;
179;SDS011;78;48.788;9.010;2022-07-29T03:52:06;23.67;;;7.50;;
179;SDS011;78;48.788;9.010;2022-07-29T03:54:33;21.77;;;7.30;;
179;SDS011;78;48.788;9.010;2022-07-29T03:56:59;20.60;;;7.30;;
179;SDS011;78;48.788;9.010;2022-07-29T03:59:26;19.93;;;6.70;;
179;SDS011;78;48.788;9.010;2022-07-29T04:01:53;19.97;;;6.70;;
179;SDS011;78;48.788;9.010;2022-07-29T04:04:19;22.50;;;7.57;;
179;SDS011;78;48.788;9.010;2022-07-29T04:06:45;19.63;;;6.97;;
179;SDS011;78;48.788;9.010;2022-07-29T04:09:12;23.00;;;7.00;;
179;SDS011;78;48.788;9.010;2022-07-29T04:11:38;21.83;;;7.47;;
179;SDS011;78;48.788;9.010;2022-07-29T04:14:04;23.27;;;7.60;;
179;SDS011;78;48.788;9.010;2022-07-29T04:16:30;20.23;;;7.47;;
179;SDS011;78;48.788;9.010;2022-07-29T04:18:57;20.57;;;7.10;;
179;SDS011;78;48.788;9.010;2022-07-29T04:21:23;22.50;;;7.43;;
179;SDS011;78;48.788;9.010;2022-07-29T04:23:49;21.30;;;7.00;;
179;SDS011;78;48.788;9.010;2022-07-29T04:26:18;20.20;;;6.87;;
179;SDS011;78;48.788;9.010;2022-07-29T04:28:44;18.97;;;6.50;;
179;SDS011;78;48.788;9.010;2022-07-29T04:31:10;20.70;;;6.63;;
179;SDS011;78;48.788;9.010;2022-07-29T04:33:37;20.03;;;7.17;;
179;SDS011;78;48.788;9.010;2022-07-29T04:36:03;20.10;;;7.50;;
179;SDS011;78;48.788;9.010;2022-07-29T04:38:29;21.03;;;7.10;;
179;SDS011;78;48.788;9.010;2022-07-29T04:40:55;23.17;;;7.13;;
179;SDS011;78;48.788;9.010;2022-07-29T04:43:21;21.40;;;6.90;;
179;SDS011;78;48.788;9.010;2022-07-29T04:45:47;21.60;;;7.30;;
179;SDS011;78;48.788;9.010;2022-07-29T04:48:13;21.27;;;6.67;;
179;SDS011;78;48.788;9.010;2022-07-29T04:50:39;19.40;;;6.40;;
179;SDS011;78;48.788;9.010;2022-07-29T04:53:06;19.70;;;6.80;;
179;SDS011;78;48.788;9.010;2022-07-29T04:55:32;21.80;;;6.70;;
179;SDS011;78;48.788;9.010;2022-07-29T04:57:59;19.70;;;6.63;;
179;SDS011;78;48.788;9.010;2022-07-29T05:00:25;19.47;;;6.03;;
179;SDS011;78;48.788;9.010;2022-07-29T05:02:51;19.20;;;6.10;;
179;SDS011;78;48.788;9.010;2022-07-29T05:05:18;31.03;;;6.70;;
179;SDS011;78;48.788;9.010;2022-07-29T05:07:44;18.77;;;6.33;;
179;SDS011;78;48.788;9.010;2022-07-29T05:10:10;21.00;;;6.50;;
179;SDS011;78;48.788;9.010;2022-07-29T05:12:36;19.40;;;6.67;;
179;SDS011;78;48.788;9.010;2022-07-29T05:15:02;19.73;;;6.50;;
179;SDS011;78;48.788;9.010;2022-07-29T05:17:28;20.17;;;6.00;;
179;SDS011;78;48.788;9.010;2022-07-29T05:19:54;19.10;;;6.23;;
179;SDS011;78;48.788;9.010;2022-07-29T05:22:20;21.63;;;6.33;;
179;SDS011;78;48.788;9.010;2022-07-29T05:24:47;20.03;;;6.47;;
179;SDS011;78;48.788;9.010;2022-07-29T05:27:13;19.90;;;5.90;;
179;SDS011;78;48.788;9.010;2022-07-29T05:29:39;18.70;;;6.57;;
179;SDS011;78;48.788;9.010;2022-07-29T05:32:05;19.70;;;6.37;;
179;SDS011;78;48.788;9.010;2022-07-29T05:34:32;19.10;;;6.30;;
179;SDS011;78;48.788;9.010;2022-07-29T05:36:58;18.40;;;6.23;;
179;SDS011;78;48.788;9.010;2022-07-29T05:39:24;22.00;;;6.27;;
179;SDS011;78;48.788;9.010;2022-07-29T05:41:50;20.07;;;6.60;;
179;SDS011;78;48.788;9.010;2022-07-29T05:44:16;19.70;;;6.73;;
179;SDS011;78;48.788;9.010;2022-07-29T05:46:42;20.13;;;6.50;;
179;SDS011;78;48.788;9.010;2022-07-29T05:49:08;20.10;;;6.37;;
179;SDS011;78;48.788;9.010;2022-07-29T05:51:34;19.50;;;6.40;;
179;SDS011;78;48.788;9.010;2022-07-29T05:54:00;18.70;;;5.87;;
179;SDS011;78;48.788;9.010;2022-07-29T05:56:26;19.50;;;6.30;;
179;SDS011;78;48.788;9.010;2022-07-29T05:58:53;19.40;;;6.70;;
179;SDS011;78;48.788;9.010;2022-07-29T06:01:19;19.97;;;6.33;;
179;SDS011;78;48.788;9.010;2022-07-29T06:03:45;21.43;;;6.60;;
179;SDS011;78;48.788;9.010;2022-07-29T06:06:11;23.00;;;7.00;;
179;SDS011;78;48.788;9.010;2022-07-29T06:08:37;20.00;;;6.30;;
179;SDS011;78;48.788;9.010;2022-07-29T06:11:05;19.63;;;6.53;;
179;SDS011;78;48.788;9.010;2022-07-29T06:13:31;19.53;;;6.43;;
179;SDS011;78;48.788;9.010;2022-07-29T06:15:57;28.43;;;6.90;;
179;SDS011;78;48.788;9.010;2022-07-29T06:18:23;28.13;;;6.80;;
179;SDS011;78;48.788;9.010;2022-07-29T06:20:49;18.17;;;6.03;;
179;SDS011;78;48.788;9.010;2022-07-29T06:23:15;20.83;;;6.60;;
179;SDS011;78;48.788;9.010;2022-07-29T06:25:41;23.40;;;6.83;;
179;SDS011;78;48.788;9.010;2022-07-29T06:28:07;24.53;;;7.17;;
179;SDS011;78;48.788;9.010;2022-07-29T06:30:33;22.90;;;6.67;;
179;SDS011;78;48.788;9.010;2022-07-29T06:33:00;19.67;;;6.40;;
179;SDS011;78;48.788;9.010;2022-07-29T06:35:26;21.47;;;6.50;;
179;SDS011;78;48.788;9.010;2022-07-29T06:37:52;22.13;;;6.70;;
179;SDS011;78;48.788;9.010;2022-07-29T06:40:18;21.53;;;7.10;;
179;SDS011;78;48.788;9.010;2022-07-29T06:43:03;34.23;;;7.67;;
179;SDS011;78;48.788;9.010;2022-07-29T06:45:30;22.97;;;7.67;;
179;SDS011;78;48.788;9.010;2022-07-29T06:47:56;23.03;;;7.50;;
179;SDS011;78;48.788;9.010;2022-07-29T06:50:22;23.87;;;6.67;;
179;SDS011;78;48.788;9.010;2022-07-29T06:52:48;23.00;;;8.07;;
179;SDS011;78;48.788;9.010;2022-07-29T06:55:14;24.00;;;7.57;;
179;SDS011;78;48.788;9.010;2022-07-29T06:57:40;26.07;;;7.90;;
179;SDS011;78;48.788;9.010;2022-07-29T07:00:06;20.67;;;6.50;;
179;SDS011;78;48.788;9.010;2022-07-29T07:02:32;20.80;;;6.67;;
179;SDS011;78;48.788;9.010;2022-07-29T07:04:58;20.00;;;6.80;;
179;SDS011;78;48.788;9.010;2022-07-29T07:07:24;20.80;;;7.20;;
179;SDS011;78;48.788;9.010;2022-07-29T07:09:50;19.60;;;6.57;;
179;SDS011;78;48.788;9.010;2022-07-29T07:12:16;24.33;;;7.30;;
179;SDS011;78;48.788;9.010;2022-07-29T07:14:42;19.17;;;6.23;;
179;SDS011;78;48.788;9.010;2022-07-29T07:17:08;21.53;;;6.80;;
179;SDS011;78;48.788;9.010;2022-07-29T07:19:34;18.33;;;6.40;;
179;SDS011;78;48.788;9.010;2022-07-29T07:22:00;18.60;;;6.27;;
179;SDS011;78;48.788;9.010;2022-07-29T07:24:26;20.80;;;6.87;;
179;SDS011;78;48.788;9.010;2022-07-29T07:26:52;19.50;;;6.87;;
179;SDS011;78;48.788;9.010;2022-07-29T07:29:18;21.03;;;6.70;;
179;SDS011;78;48.788;9.010;2022-07-29T07:31:44;20.07;;;6.70;;
179;SDS011;78;48.788;9.010;2022-07-29T07:34:10;21.13;;;6.63;;
179;SDS011;78;48.788;9.010;2022-07-29T07:36:36;26.37;;;7.17;;
179;SDS011;78;48.788;9.010;2022-07-29T07:39:02;20.20;;;7.00;;
179;SDS011;78;48.788;9.010;2022-07-29T07:41:29;24.37;;;6.80;;
179;SDS011;78;48.788;9.010;2022-07-29T07:43:55;25.20;;;7.10;;
179;SDS011;78;48.788;9.010;2022-07-29T07:46:21;20.13;;;6.70;;
179;SDS011;78;48.788;9.010;2022-07-29T07:48:47;19.37;;;6.30;;
179;SDS011;78;48.788;9.010;2022-07-29T07:51:13;23.30;;;6.80;;
179;SDS011;78;48.788;9.010;2022-07-29T07:53:39;22.97;;;6.63;;
179;SDS011;78;48.788;9.010;2022-07-29T07:56:05;22.10;;;6.40;;
179;SDS011;78;48.788;9.010;2022-07-29T07:58:32;20.83;;;5.97;;
179;SDS011;78;48.788;9.010;2022-07-29T08:00:59;22.57;;;6.80;;
179;SDS011;78;48.788;9.010;2022-07-29T08:03:25;21.33;;;6.67;;
179;SDS011;78;48.788;9.010;2022-07-29T08:05:51;19.50;;;6.60;;
179;SDS011;78;48.788;9.010;2022-07-29T08:08:19;20.00;;;6.53;;
179;SDS011;78;48.788;9.010;2022-07-29T08:10:45;22.97;;;6.80;;
179;SDS011;78;48.788;9.010;2022-07-29T08:13:17;20.10;;;7.07;;
179;SDS011;78;48.788;9.010;2022-07-29T08:15:43;28.50;;;7.40;;
179;SDS011;78;48.788;9.010;2022-07-29T08:18:10;20.90;;;7.17;;
179;SDS011;78;48.788;9.010;2022-07-29T08:20:37;27.97;;;7.80;;
179;SDS011;78;48.788;9.010;2022-07-29T08:23:04;24.00;;;7.40;;
179;SDS011;78;48.788;9.010;2022-07-29T08:25:31;25.70;;;7.30;;
179;SDS011;78;48.788;9.010;2022-07-29T08:27:57;25.63;;;7.10;;
179;SDS011;78;48.788;9.010;2022-07-29T08:30:23;21.60;;;7.30;;
179;SDS011;78;48.788;9.010;2022-07-29T08:32:49;20.53;;;6.90;;
179;SDS011;78;48.788;9.010;2022-07-29T08:35:18;21.23;;;6.50;;
179;SDS011;78;48.788;9.010;2022-07-29T08:37:44;24.97;;;6.77;;
179;SDS011;78;48.788;9.010;2022-07-29T08:40:11;20.03;;;6.37;;
179;SDS011;78;48.788;9.010;2022-07-29T08:42:37;25.23;;;7.07;;
179;SDS011;78;48.788;9.010;2022-07-29T08:45:04;23.27;;;6.60;;
179;SDS011;78;48.788;9.010;2022-07-29T08:47:30;19.10;;;6.77;;
179;SDS011;78;48.788;9.010;2022-07-29T08:49:56;23.73;;;6.90;;
179;SDS011;78;48.788;9.010;2022-07-29T08:52:25;23.97;;;7.23;;
179;SDS011;78;48.788;9.010;2022-07-29T08:54:52;22.50;;;6.87;;
179;SDS011;78;48.788;9.010;2022-07-29T08:57:19;20.37;;;6.97;;
179;SDS011;78;48.788;9.010;2022-07-29T08:59:46;26.30;;;8.00;;
179;SDS011;78;48.788;9.010;2022-07-29T09:02:16;26.73;;;7.40;;
179;SDS011;78;48.788;9.010;2022-07-29T09:04:44;21.87;;;7.00;;
179;SDS011;78;48.788;9.010;2022-07-29T09:07:10;22.23;;;7.40;;
179;SDS011;78;48.788;9.010;2022-07-29T09:09:39;23.33;;;7.00;;
179;SDS011;78;48.788;9.010;2022-07-29T09:12:06;23.30;;;6.80;;
179;SDS011;78;48.788;9.010;2022-07-29T09:14:33;21.20;;;7.10;;
179;SDS011;78;48.788;9.010;2022-07-29T09:16:59;22.80;;;6.80;;
179;SDS011;78;48.788;9.010;2022-07-29T09:19:43;20.47;;;7.17;;
179;SDS011;78;48.788;9.010;2022-07-29T09:22:09;23.13;;;6.67;;
179;SDS011;78;48.788;9.010;2022-07-29T09:27:06;20.40;;;7.03;;
179;SDS011;78;48.788;9.010;2022-07-29T09:29:33;20.10;;;6.63;;
179;SDS011;78;48.788;9.010;2022-07-29T09:31:59;19.30;;;6.67;;
179;SDS011;78;48.788;9.010;2022-07-29T09:34:26;20.50;;;6.83;;
179;SDS011;78;48.788;9.010;2022-07-29T09:36:53;21.47;;;6.77;;
179;SDS011;78;48.788;9.010;2022-07-29T09:39:27;22.87;;;6.70;;
179;SDS011;78;48.788;9.010;2022-07-29T09:41:54;22.27;;;7.13;;
179;SDS011;78;48.788;9.010;2022-07-29T09:44:22;27.47;;;6.90;;
179;SDS011;78;48.788;9.010;2022-07-29T09:49:23;18.20;;;6.30;;
179;SDS011;78;48.788;9.010;2022-07-29T09:52:01;21.73;;;6.80;;
179;SDS011;78;48.788;9.010;2022-07-29T09:54:30;21.43;;;6.70;;
179;SDS011;78;48.788;9.010;2022-07-29T09:57:02;19.47;;;6.70;;
179;SDS011;78;48.788;9.010;2022-07-29T09:59:29;20.47;;;7.00;;
179;SDS011;78;48.788;9.010;2022-07-29T10:01:55;19.87;;;6.50;;
179;SDS011;78;48.788;9.010;2022-07-29T10:04:21;22.20;;;6.50;;
179;SDS011;78;48.788;9.010;2022-07-29T10:07:01;21.87;;;7.00;;
179;SDS011;78;48.788;9.010;2022-07-29T10:09:27;21.00;;;7.20;;
179;SDS011;78;48.788;9.010;2022-07-29T10:12:06;20.17;;;7.00;;
179;SDS011;78;48.788;9.010;2022-07-29T10:14:33;19.87;;;6.90;;
179;SDS011;78;48.788;9.010;2022-07-29T10:17:00;24.47;;;7.10;;
179;SDS011;78;48.788;9.010;2022-07-29T10:19:27;23.33;;;6.90;;
179;SDS011;78;48.788;9.010;2022-07-29T10:21:54;20.93;;;6.43;;
179;SDS011;78;48.788;9.010;2022-07-29T10:24:21;20.57;;;6.70;;
179;SDS011;78;48.788;9.010;2022-07-29T10:26:48;22.90;;;7.27;;
179;SDS011;78;48.788;9.010;2022-07-29T10:29:15;20.03;;;6.80;;
179;SDS011;78;48.788;9.010;2022-07-29T10:31:47;23.80;;;7.00;;
179;SDS011;78;48.788;9.010;2022-07-29T10:39:23;24.13;;;8.17;;
179;SDS011;78;48.788;9.010;2022-07-29T10:44:20;27.73;;;8.70;;
179;SDS011;78;48.788;9.010;2022-07-29T10:46:47;23.80;;;8.50;;
179;SDS011;78;48.788;9.010;2022-07-29T10:49:14;29.30;;;9.30;;
179;SDS011;78;48.788;9.010;2022-07-29T10:54:19;31.00;;;10.93;;
179;SDS011;78;48.788;9.010;2022-07-29T10:59:37;39.03;;;12.60;;
179;SDS011;78;48.788;9.010;2022-07-29T11:02:09;29.63;;;12.27;;
179;SDS011;78;48.788;9.010;2022-07-29T11:07:15;27.60;;;12.03;;
179;SDS011;78;48.788;9.010;2022-07-29T11:09:41;28.10;;;12.17;;
179;SDS011;78;48.788;9.010;2022-07-29T11:17:18;25.30;;;11.20;;
179;SDS011;78;48.788;9.010;2022-07-29T11:19:44;25.33;;;11.43;;
179;SDS011;78;48.788;9.010;2022-07-29T11:22:10;26.37;;;10.67;;
179;SDS011;78;48.788;9.010;2022-07-29T11:24:37;26.50;;;10.70;;
179;SDS011;78;48.788;9.010;2022-07-29T11:27:10;25.70;;;10.13;;
179;SDS011;78;48.788;9.010;2022-07-29T11:29:40;25.33;;;10.50;;
179;SDS011;78;48.788;9.010;2022-07-29T11:32:13;28.23;;;10.13;;
179;SDS011;78;48.788;9.010;2022-07-29T11:34:41;30.00;;;10.60;;
179;SDS011;78;48.788;9.010;2022-07-29T11:39:41;29.13;;;10.70;;
179;SDS011;78;48.788;9.010;2022-07-29T11:47:23;24.77;;;8.77;;
179;SDS011;78;48.788;9.010;2022-07-29T11:49:49;22.33;;;8.40;;
179;SDS011;78;48.788;9.010;2022-07-29T11:52:16;24.20;;;8.20;;
179;SDS011;78;48.788;9.010;2022-07-29T11:54:42;22.67;;;7.43;;
179;SDS011;78;48.788;9.010;2022-07-29T11:57:10;24.00;;;7.93;;
179;SDS011;78;48.788;9.010;2022-07-29T11:59:42;21.47;;;8.33;;
179;SDS011;78;48.788;9.010;2022-07-29T12:02:08;23.37;;;8.90;;
179;SDS011;78;48.788;9.010;2022-07-29T12:04:50;20.40;;;7.90;;
179;SDS011;78;48.788;9.010;2022-07-29T12:07:16;25.60;;;8.00;;
179;SDS011;78;48.788;9.010;2022-07-29T12:09:52;31.47;;;8.33;;
179;SDS011;78;48.788;9.010;2022-07-29T12:12:19;23.47;;;7.80;;
179;SDS011;78;48.788;9.010;2022-07-29T12:14:45;21.77;;;8.10;;
179;SDS011;78;48.788;9.010;2022-07-29T12:19:53;22.00;;;7.73;;
179;SDS011;78;48.788;9.010;2022-07-29T12:22:30;24.00;;;7.97;;
179;SDS011;78;48.788;9.010;2022-07-29T12:25:04;21.70;;;7.40;;
179;SDS011;78;48.788;9.010;2022-07-29T12:27:31;22.00;;;7.83;;
179;SDS011;78;48.788;9.010;2022-07-29T12:29:58;23.60;;;7.57;;
179;SDS011;78;48.788;9.010;2022-07-29T12:32:35;20.30;;;7.50;;
179;SDS011;78;48.788;9.010;2022-07-29T12:35:14;22.53;;;8.20;;
179;SDS011;78;48.788;9.010;2022-07-29T12:37:41;20.63;;;7.17;;
179;SDS011;78;48.788;9.010;2022-07-29T12:40:08;20.80;;;7.50;;
179;SDS011;78;48.788;9.010;2022-07-29T12:42:34;22.57;;;7.37;;
179;SDS011;78;48.788;9.010;2022-07-29T12:45:00;20.80;;;7.80;;
179;SDS011;78;48.788;9.010;2022-07-29T12:47:27;21.17;;;7.30;;
179;SDS011;78;48.788;9.010;2022-07-29T12:52:34;25.07;;;8.33;;
179;SDS011;78;48.788;9.010;2022-07-29T12:55:01;22.00;;;8.07;;
179;SDS011;78;48.788;9.010;2022-07-29T12:57:27;21.27;;;8.30;;
179;SDS011;78;48.788;9.010;2022-07-29T13:00:04;23.53;;;8.30;;
179;SDS011;78;48.788;9.010;2022-07-29T13:02:32;21.10;;;7.87;;
179;SDS011;78;48.788;9.010;2022-07-29T13:04:59;20.67;;;7.50;;
179;SDS011;78;48.788;9.010;2022-07-29T13:07:27;22.50;;;7.40;;
179;SDS011;78;48.788;9.010;2022-07-29T13:09:54;23.47;;;8.23;;
179;SDS011;78;48.788;9.010;2022-07-29T13:12:35;26.90;;;8.40;;
179;SDS011;78;48.788;9.010;2022-07-29T13:15:11;23.80;;;7.57;;
179;SDS011;78;48.788;9.010;2022-07-29T13:17:41;21.90;;;7.83;;
179;SDS011;78;48.788;9.010;2022-07-29T13:20:09;20.00;;;7.43;;
179;SDS011;78;48.788;9.010;2022-07-29T13:22:37;21.03;;;7.60;;
179;SDS011;78;48.788;9.010;2022-07-29T13:25:04;23.03;;;7.73;;
179;SDS011;78;48.788;9.010;2022-07-29T13:27:34;20.87;;;7.53;;
179;SDS011;78;48.788;9.010;2022-07-29T13:30:02;20.80;;;7.10;;
179;SDS011;78;48.788;9.010;2022-07-29T13:32:30;22.47;;;7.43;;
179;SDS011;78;48.788;9.010;2022-07-29T13:34:56;21.00;;;7.40;;
179;SDS011;78;48.788;9.010;2022-07-29T13:37:22;23.50;;;6.67;;
179;SDS011;78;48.788;9.010;2022-07-29T13:39:48;19.10;;;5.93;;
179;SDS011;78;48.788;9.010;2022-07-29T13:42:14;20.30;;;6.10;;
179;SDS011;78;48.788;9.010;2022-07-29T13:44:40;18.00;;;5.80;;
179;SDS011;78;48.788;9.010;2022-07-29T13:47:07;18.77;;;5.50;;
179;SDS011;78;48.788;9.010;2022-07-29T13:49:33;20.57;;;5.63;;
179;SDS011;78;48.788;9.010;2022-07-29T13:52:00;17.27;;;5.23;;
179;SDS011;78;48.788;9.010;2022-07-29T13:54:26;19.13;;;5.90;;
179;SDS011;78;48.788;9.010;2022-07-29T13:56:53;16.70;;;5.30;;
179;SDS011;78;48.788;9.010;2022-07-29T13:59:19;18.30;;;6.00;;
179;SDS011;78;48.788;9.010;2022-07-29T14:01:45;24.17;;;5.37;;
179;SDS011;78;48.788;9.010;2022-07-29T14:04:11;20.50;;;5.80;;
179;SDS011;78;48.788;9.010;2022-07-29T14:06:37;20.77;;;6.13;;
179;SDS011;78;48.788;9.010;2022-07-29T14:09:04;23.50;;;6.27;;
179;SDS011;78;48.788;9.010;2022-07-29T14:11:31;19.20;;;6.37;;
179;SDS011;78;48.788;9.010;2022-07-29T14:13:57;18.87;;;6.03;;
179;SDS011;78;48.788;9.010;2022-07-29T14:16:23;18.40;;;6.17;;
179;SDS011;78;48.788;9.010;2022-07-29T14:18:49;19.60;;;5.93;;
179;SDS011;78;48.788;9.010;2022-07-29T14:21:15;20.20;;;5.90;;
179;SDS011;78;48.788;9.010;2022-07-29T14:23:41;22.60;;;6.30;;
179;SDS011;78;48.788;9.010;2022-07-29T14:26:07;23.00;;;6.27;;
179;SDS011;78;48.788;9.010;2022-07-29T14:28:33;19.93;;;6.30;;
179;SDS011;78;48.788;9.010;2022-07-29T14:30:59;21.70;;;7.07;;
179;SDS011;78;48.788;9.010;2022-07-29T14:33:25;20.63;;;6.20;;
179;SDS011;78;48.788;9.010;2022-07-29T14:35:51;20.90;;;6.60;;
179;SDS011;78;48.788;9.010;2022-07-29T14:38:17;18.90;;;6.10;;
179;SDS011;78;48.788;9.010;2022-07-29T14:40:43;18.50;;;6.00;;
179;SDS011;78;48.788;9.010;2022-07-29T14:43:08;22.87;;;7.10;;
179;SDS011;78;48.788;9.010;2022-07-29T14:45:34;21.80;;;6.87;;
179;SDS011;78;48.788;9.010;2022-07-29T14:48:00;19.77;;;6.40;;
179;SDS011;78;48.788;9.010;2022-07-29T14:50:26;28.97;;;6.63;;
179;SDS011;78;48.788;9.010;2022-07-29T14:52:52;21.03;;;6.93;;
179;SDS011;78;48.788;9.010;2022-07-29T14:55:19;24.10;;;7.00;;
179;SDS011;78;48.788;9.010;2022-07-29T14:57:45;26.77;;;7.20;;
179;SDS011;78;48.788;9.010;2022-07-29T15:00:11;19.93;;;6.03;;
179;SDS011;78;48.788;9.010;2022-07-29T15:02:37;20.03;;;6.17;;
179;SDS011;78;48.788;9.010;2022-07-29T15:05:03;20.90;;;6.57;;
179;SDS011;78;48.788;9.010;2022-07-29T15:07:29;23.70;;;6.97;;
179;SDS011;78;48.788;9.010;2022-07-29T15:09:55;20.40;;;6.70;;
179;SDS011;78;48.788;9.010;2022-07-29T15:12:21;19.70;;;6.87;;
179;SDS011;78;48.788;9.010;2022-07-29T15:14:48;21.43;;;6.60;;
179;SDS011;78;48.788;9.010;2022-07-29T15:17:14;20.10;;;7.60;;
179;SDS011;78;48.788;9.010;2022-07-29T15:19:40;18.77;;;6.20;;
179;SDS011;78;48.788;9.010;2022-07-29T15:22:06;20.03;;;6.40;;
179;SDS011;78;48.788;9.010;2022-07-29T15:24:32;20.90;;;6.53;;
179;SDS011;78;48.788;9.010;2022-07-29T15:26:59;23.33;;;6.83;;
179;SDS011;78;48.788;9.010;2022-07-29T15:29:25;21.43;;;6.60;;
179;SDS011;78;48.788;9.010;2022-07-29T15:31:51;24.37;;;6.87;;
179;SDS011;78;48.788;9.010;2022-07-29T15:34:17;23.50;;;6.30;;
179;SDS011;78;48.788;9.010;2022-07-29T15:36:45;20.30;;;6.40;;
179;SDS011;78;48.788;9.010;2022-07-29T15:39:11;18.20;;;6.03;;
179;SDS011;78;48.788;9.010;2022-07-29T15:41:37;21.83;;;6.60;;
179;SDS011;78;48.788;9.010;2022-07-29T15:44:03;22.33;;;6.60;;
179;SDS011;78;48.788;9.010;2022-07-29T15:46:29;21.90;;;6.60;;
179;SDS011;78;48.788;9.010;2022-07-29T15:49:14;20.30;;;6.40;;
179;SDS011;78;48.788;9.010;2022-07-29T15:51:41;23.67;;;6.80;;
179;SDS011;78;48.788;9.010;2022-07-29T15:54:07;20.00;;;7.07;;
179;SDS011;78;48.788;9.010;2022-07-29T15:56:33;22.20;;;7.10;;
179;SDS011;78;48.788;9.010;2022-07-29T15:58:59;21.07;;;7.50;;
179;SDS011;78;48.788;9.010;2022-07-29T16:01:25;23.97;;;7.07;;
179;SDS011;78;48.788;9.010;2022-07-29T16:03:51;29.83;;;7.23;;
179;SDS011;78;48.788;9.010;2022-07-29T16:06:17;23.17;;;6.83;;
179;SDS011;78;48.788;9.010;2022-07-29T16:08:44;21.27;;;6.43;;
179;SDS011;78;48.788;9.010;2022-07-29T16:11:10;29.37;;;6.30;;
179;SDS011;78;48.788;9.010;2022-07-29T16:13:36;20.93;;;6.63;;
179;SDS011;78;48.788;9.010;2022-07-29T16:16:02;19.77;;;6.60;;
179;SDS011;78;48.788;9.010;2022-07-29T16:18:28;22.40;;;6.80;;
179;SDS011;78;48.788;9.010;2022-07-29T16:20:54;25.23;;;7.10;;
179;SDS011;78;48.788;9.010;2022-07-29T16:23:19;20.60;;;7.10;;
179;SDS011;78;48.788;9.010;2022-07-29T16:25:45;21.37;;;7.53;;
179;SDS011;78;48.788;9.010;2022-07-29T16:28:11;20.27;;;7.57;;
179;SDS011;78;48.788;9.010;2022-07-29T16:30:37;21.00;;;7.30;;
179;SDS011;78;48.788;9.010;2022-07-29T16:33:03;20.43;;;8.00;;
179;SDS011;78;48.788;9.010;2022-07-29T16:35:29;21.63;;;8.10;;
179;SDS011;78;48.788;9.010;2022-07-29T16:37:56;20.50;;;7.60;;
179;SDS011;78;48.788;9.010;2022-07-29T16:40:22;20.87;;;7.63;;